Terminal Aerodrome Forecast
Issued by NWS

Home | Current Version | Previous Version | Text Only | Print | Product List | Glossary On
Versions: 1 2 3 4 5 6 7 8 9 10 11 12 13 14 15 16 17 18 19 20 21 22 23 24 25 26 27 28 29 30 31 32 33 34 35 36
000
FTUS42 KFFC 191947 AAA
TAFFTY
TAF AMD
KFTY 191947Z 1920/2018 23010KT P6SM SCT010 BKN025
     FM192100 25012G20KT P6SM -SHRA OVC018
     FM200300 24012KT P6SM OVC015
     FM201000 24012KT P6SM -SHRA OVC015
     FM201700 25012G22KT P6SM VCSH OVC025=

USA.gov is the U.S. government's official web portal to all federal, state and local government web resources and services.